LYTV/TIV METAR and TAF weather

Enter ICAO airport designator
Station Type Date Time Source
LYTV METAR 2019/10/14 05:30 UTC NOAA

LYTV 140530Z VRB01KT CAVOK 09/09 Q1021 NOSIG


Station Type Date Time Source
LYTV Decoded METAR 2019/10/14 05:30 UTC NOAA

Tivat, Serbia and Montenegro (LYTV) 42-24N 018-44E 5M
Oct 14, 2019 - 01:30 AM EDT / 2019.10.14 0530 UTC
Wind: Variable at 1 MPH (1 KT):0
Visibility: greater than 7 mile(s):0
Temperature: 48 F (9 C)
Dew Point: 48 F (9 C)
Relative Humidity: 100%
Pressure (altimeter): 30.15 in. Hg (1021 hPa)
ob: LYTV 140530Z VRB01KT CAVOK 09/09 Q1021 NOSIG
cycle: 5

Station Type Date Time Source
LYTV TAF 2019/10/14 06:21 UTC NOAA

TAF LYTV 140500Z 1406/1506 24005KT CAVOK TX26/1413Z TN10/1503Z PROB40
TEMPO 1406/1407 1000 BR

Example: see airport list